sensor_id;sensor_type;location;lat;lon;timestamp;temperature;humidity
19870;DHT22;10097;50.862;4.696;2023-07-02T00:01:12;17.50;99.90
19870;DHT22;10097;50.862;4.696;2023-07-02T00:03:39;17.60;99.90
19870;DHT22;10097;50.862;4.696;2023-07-02T00:06:05;17.60;99.90
19870;DHT22;10097;50.862;4.696;2023-07-02T00:08:30;17.60;99.90
19870;DHT22;10097;50.862;4.696;2023-07-02T00:10:56;17.60;99.90
19870;DHT22;10097;50.862;4.696;2023-07-02T00:13:22;17.50;99.90
19870;DHT22;10097;50.862;4.696;2023-07-02T00:15:48;17.40;99.90
19870;DHT22;10097;50.862;4.696;2023-07-02T00:18:13;17.40;99.90
19870;DHT22;10097;50.862;4.696;2023-07-02T00:20:43;17.40;99.90
19870;DHT22;10097;50.862;4.696;2023-07-02T00:23:09;17.40;99.90
19870;DHT22;10097;50.862;4.696;2023-07-02T00:25:35;17.30;99.90
19870;DHT22;10097;50.862;4.696;2023-07-02T00:28:02;17.30;99.90
19870;DHT22;10097;50.862;4.696;2023-07-02T00:30:27;17.40;99.90
19870;DHT22;10097;50.862;4.696;2023-07-02T00:32:53;17.30;99.90
19870;DHT22;10097;50.862;4.696;2023-07-02T00:35:19;17.30;99.90
19870;DHT22;10097;50.862;4.696;2023-07-02T00:37:44;17.40;99.90
19870;DHT22;10097;50.862;4.696;2023-07-02T00:40:10;17.40;99.90
19870;DHT22;10097;50.862;4.696;2023-07-02T00:42:36;17.40;99.90
19870;DHT22;10097;50.862;4.696;2023-07-02T00:45:02;17.40;99.90
19870;DHT22;10097;50.862;4.696;2023-07-02T00:47:33;17.40;99.90
19870;DHT22;10097;50.862;4.696;2023-07-02T00:50:00;17.40;99.90
19870;DHT22;10097;50.862;4.696;2023-07-02T00:52:28;17.30;99.90
19870;DHT22;10097;50.862;4.696;2023-07-02T00:54:53;17.20;99.90
19870;DHT22;10097;50.862;4.696;2023-07-02T00:57:20;17.20;99.90
19870;DHT22;10097;50.862;4.696;2023-07-02T00:59:46;17.30;99.90
19870;DHT22;10097;50.862;4.696;2023-07-02T01:02:11;17.20;99.90
19870;DHT22;10097;50.862;4.696;2023-07-02T01:04:39;17.30;99.90
19870;DHT22;10097;50.862;4.696;2023-07-02T01:07:05;17.30;99.90
19870;DHT22;10097;50.862;4.696;2023-07-02T01:09:35;17.30;99.90
19870;DHT22;10097;50.862;4.696;2023-07-02T01:12:08;17.20;99.90
19870;DHT22;10097;50.862;4.696;2023-07-02T01:14:44;17.30;99.90
19870;DHT22;10097;50.862;4.696;2023-07-02T01:17:10;17.40;99.90
19870;DHT22;10097;50.862;4.696;2023-07-02T01:19:47;17.30;99.90
19870;DHT22;10097;50.862;4.696;2023-07-02T01:22:17;17.30;99.90
19870;DHT22;10097;50.862;4.696;2023-07-02T01:24:44;17.30;99.90
19870;DHT22;10097;50.862;4.696;2023-07-02T01:27:11;17.30;99.90
19870;DHT22;10097;50.862;4.696;2023-07-02T01:29:37;17.40;99.90
19870;DHT22;10097;50.862;4.696;2023-07-02T01:32:03;17.40;99.90
19870;DHT22;10097;50.862;4.696;2023-07-02T01:34:29;17.30;99.90
19870;DHT22;10097;50.862;4.696;2023-07-02T01:36:55;17.20;99.90
19870;DHT22;10097;50.862;4.696;2023-07-02T01:39:20;17.20;99.90
19870;DHT22;10097;50.862;4.696;2023-07-02T01:41:52;17.30;99.90
19870;DHT22;10097;50.862;4.696;2023-07-02T01:44:18;17.30;99.90
19870;DHT22;10097;50.862;4.696;2023-07-02T01:46:44;17.30;99.90
19870;DHT22;10097;50.862;4.696;2023-07-02T01:49:10;17.30;99.90
19870;DHT22;10097;50.862;4.696;2023-07-02T01:51:36;17.30;99.90
19870;DHT22;10097;50.862;4.696;2023-07-02T01:54:01;17.30;99.90
19870;DHT22;10097;50.862;4.696;2023-07-02T01:56:27;17.30;99.90
19870;DHT22;10097;50.862;4.696;2023-07-02T01:58:54;17.30;99.90
19870;DHT22;10097;50.862;4.696;2023-07-02T02:01:19;17.30;99.90
19870;DHT22;10097;50.862;4.696;2023-07-02T02:03:45;17.30;99.90
19870;DHT22;10097;50.862;4.696;2023-07-02T02:06:11;17.30;99.90
19870;DHT22;10097;50.862;4.696;2023-07-02T02:08:36;17.40;99.90
19870;DHT22;10097;50.862;4.696;2023-07-02T02:11:02;17.40;99.90
19870;DHT22;10097;50.862;4.696;2023-07-02T02:13:28;17.30;99.90
19870;DHT22;10097;50.862;4.696;2023-07-02T02:15:54;17.40;99.90
19870;DHT22;10097;50.862;4.696;2023-07-02T02:18:20;17.50;99.90
19870;DHT22;10097;50.862;4.696;2023-07-02T02:20:45;17.40;99.90
19870;DHT22;10097;50.862;4.696;2023-07-02T02:23:11;17.30;99.90
19870;DHT22;10097;50.862;4.696;2023-07-02T02:25:37;17.30;99.90
19870;DHT22;10097;50.862;4.696;2023-07-02T02:28:02;17.30;99.90
19870;DHT22;10097;50.862;4.696;2023-07-02T02:30:28;17.20;99.90
19870;DHT22;10097;50.862;4.696;2023-07-02T02:32:53;17.30;99.90
19870;DHT22;10097;50.862;4.696;2023-07-02T02:35:19;17.20;99.90
19870;DHT22;10097;50.862;4.696;2023-07-02T02:37:45;17.10;99.90
19870;DHT22;10097;50.862;4.696;2023-07-02T02:40:11;17.10;99.90
19870;DHT22;10097;50.862;4.696;2023-07-02T02:42:38;17.00;99.90
19870;DHT22;10097;50.862;4.696;2023-07-02T02:45:04;17.00;99.90
19870;DHT22;10097;50.862;4.696;2023-07-02T02:47:30;17.00;99.90
19870;DHT22;10097;50.862;4.696;2023-07-02T02:49:55;16.90;99.90
19870;DHT22;10097;50.862;4.696;2023-07-02T02:52:21;16.90;99.90
19870;DHT22;10097;50.862;4.696;2023-07-02T02:54:47;16.90;99.90
19870;DHT22;10097;50.862;4.696;2023-07-02T02:57:12;17.00;99.90
19870;DHT22;10097;50.862;4.696;2023-07-02T02:59:39;17.00;99.90
19870;DHT22;10097;50.862;4.696;2023-07-02T03:02:04;16.90;99.90
19870;DHT22;10097;50.862;4.696;2023-07-02T03:04:30;16.80;99.90
19870;DHT22;10097;50.862;4.696;2023-07-02T03:06:56;16.80;99.90
19870;DHT22;10097;50.862;4.696;2023-07-02T03:09:22;16.80;99.90
19870;DHT22;10097;50.862;4.696;2023-07-02T03:11:47;16.90;99.90
19870;DHT22;10097;50.862;4.696;2023-07-02T03:14:14;16.80;99.90
19870;DHT22;10097;50.862;4.696;2023-07-02T03:16:44;16.80;99.90
19870;DHT22;10097;50.862;4.696;2023-07-02T03:19:11;16.80;99.90
19870;DHT22;10097;50.862;4.696;2023-07-02T03:21:41;16.80;99.90
19870;DHT22;10097;50.862;4.696;2023-07-02T03:24:06;16.70;99.90
19870;DHT22;10097;50.862;4.696;2023-07-02T03:26:32;16.60;99.90
19870;DHT22;10097;50.862;4.696;2023-07-02T03:28:58;16.60;99.90
19870;DHT22;10097;50.862;4.696;2023-07-02T03:31:23;16.60;99.90
19870;DHT22;10097;50.862;4.696;2023-07-02T03:33:49;16.60;99.90
19870;DHT22;10097;50.862;4.696;2023-07-02T03:36:15;16.60;99.90
19870;DHT22;10097;50.862;4.696;2023-07-02T03:38:40;16.60;99.90
19870;DHT22;10097;50.862;4.696;2023-07-02T03:41:06;16.60;99.90
19870;DHT22;10097;50.862;4.696;2023-07-02T03:43:31;16.50;99.90
19870;DHT22;10097;50.862;4.696;2023-07-02T03:45:57;16.70;99.90
19870;DHT22;10097;50.862;4.696;2023-07-02T03:48:23;16.70;99.90
19870;DHT22;10097;50.862;4.696;2023-07-02T03:50:48;16.60;99.90
19870;DHT22;10097;50.862;4.696;2023-07-02T03:53:14;16.60;99.90
19870;DHT22;10097;50.862;4.696;2023-07-02T03:55:40;16.60;99.90
19870;DHT22;10097;50.862;4.696;2023-07-02T03:58:06;16.60;99.90
19870;DHT22;10097;50.862;4.696;2023-07-02T04:00:31;16.60;99.90
19870;DHT22;10097;50.862;4.696;2023-07-02T04:02:57;16.50;99.90
19870;DHT22;10097;50.862;4.696;2023-07-02T04:05:23;16.60;99.90
19870;DHT22;10097;50.862;4.696;2023-07-02T04:07:49;16.60;99.90
19870;DHT22;10097;50.862;4.696;2023-07-02T04:10:14;16.60;99.90
19870;DHT22;10097;50.862;4.696;2023-07-02T04:12:40;16.50;99.90
19870;DHT22;10097;50.862;4.696;2023-07-02T04:15:06;16.50;99.90
19870;DHT22;10097;50.862;4.696;2023-07-02T04:17:32;16.50;99.90
19870;DHT22;10097;50.862;4.696;2023-07-02T04:20:00;16.40;99.90
19870;DHT22;10097;50.862;4.696;2023-07-02T04:22:27;16.60;99.90
19870;DHT22;10097;50.862;4.696;2023-07-02T04:24:53;16.70;99.90
19870;DHT22;10097;50.862;4.696;2023-07-02T04:27:19;16.70;99.90
19870;DHT22;10097;50.862;4.696;2023-07-02T04:29:44;16.80;99.90
19870;DHT22;10097;50.862;4.696;2023-07-02T04:32:10;16.90;99.90
19870;DHT22;10097;50.862;4.696;2023-07-02T04:34:36;16.90;99.90
19870;DHT22;10097;50.862;4.696;2023-07-02T04:37:05;16.90;99.90
19870;DHT22;10097;50.862;4.696;2023-07-02T04:39:31;16.90;99.90
19870;DHT22;10097;50.862;4.696;2023-07-02T04:41:56;17.00;99.90
19870;DHT22;10097;50.862;4.696;2023-07-02T04:44:22;17.00;99.90
19870;DHT22;10097;50.862;4.696;2023-07-02T04:47:01;17.00;99.90
19870;DHT22;10097;50.862;4.696;2023-07-02T04:49:27;17.10;99.90
19870;DHT22;10097;50.862;4.696;2023-07-02T04:51:53;17.20;99.90
19870;DHT22;10097;50.862;4.696;2023-07-02T04:54:22;17.00;99.90
19870;DHT22;10097;50.862;4.696;2023-07-02T04:56:48;16.90;99.90
19870;DHT22;10097;50.862;4.696;2023-07-02T04:59:17;16.80;99.90
19870;DHT22;10097;50.862;4.696;2023-07-02T05:01:43;16.80;99.90
19870;DHT22;10097;50.862;4.696;2023-07-02T05:04:10;16.90;99.90
19870;DHT22;10097;50.862;4.696;2023-07-02T05:06:39;16.90;99.90
19870;DHT22;10097;50.862;4.696;2023-07-02T05:09:05;16.90;99.90
19870;DHT22;10097;50.862;4.696;2023-07-02T05:11:30;16.90;99.90
19870;DHT22;10097;50.862;4.696;2023-07-02T05:13:56;16.90;99.90
19870;DHT22;10097;50.862;4.696;2023-07-02T05:16:22;16.90;99.90
19870;DHT22;10097;50.862;4.696;2023-07-02T05:18:47;17.00;99.90
19870;DHT22;10097;50.862;4.696;2023-07-02T05:21:17;17.00;99.90
19870;DHT22;10097;50.862;4.696;2023-07-02T05:23:42;17.10;99.90
19870;DHT22;10097;50.862;4.696;2023-07-02T05:26:08;17.10;99.90
19870;DHT22;10097;50.862;4.696;2023-07-02T05:28:39;17.20;99.90
19870;DHT22;10097;50.862;4.696;2023-07-02T05:31:04;17.20;99.90
19870;DHT22;10097;50.862;4.696;2023-07-02T05:33:30;17.30;99.90
19870;DHT22;10097;50.862;4.696;2023-07-02T05:35:57;17.50;99.90
19870;DHT22;10097;50.862;4.696;2023-07-02T05:38:23;17.70;99.90
19870;DHT22;10097;50.862;4.696;2023-07-02T05:40:50;17.90;99.90
19870;DHT22;10097;50.862;4.696;2023-07-02T05:43:15;17.80;99.90
19870;DHT22;10097;50.862;4.696;2023-07-02T05:45:41;17.80;99.90
19870;DHT22;10097;50.862;4.696;2023-07-02T05:48:07;18.00;99.90
19870;DHT22;10097;50.862;4.696;2023-07-02T05:50:33;18.10;99.90
19870;DHT22;10097;50.862;4.696;2023-07-02T05:52:59;18.20;99.90
19870;DHT22;10097;50.862;4.696;2023-07-02T05:55:24;18.20;99.90
19870;DHT22;10097;50.862;4.696;2023-07-02T05:57:50;18.30;99.90
19870;DHT22;10097;50.862;4.696;2023-07-02T06:00:16;18.30;99.90
19870;DHT22;10097;50.862;4.696;2023-07-02T06:02:42;18.30;99.90
19870;DHT22;10097;50.862;4.696;2023-07-02T06:05:08;18.50;99.90
19870;DHT22;10097;50.862;4.696;2023-07-02T06:07:33;18.60;99.90
19870;DHT22;10097;50.862;4.696;2023-07-02T06:09:59;18.70;99.90
19870;DHT22;10097;50.862;4.696;2023-07-02T06:12:30;18.50;99.90
19870;DHT22;10097;50.862;4.696;2023-07-02T06:14:55;18.50;99.90
19870;DHT22;10097;50.862;4.696;2023-07-02T06:17:22;18.60;99.90
19870;DHT22;10097;50.862;4.696;2023-07-02T06:19:48;18.50;99.90
19870;DHT22;10097;50.862;4.696;2023-07-02T06:22:13;18.40;99.90
19870;DHT22;10097;50.862;4.696;2023-07-02T06:24:39;18.50;99.90
19870;DHT22;10097;50.862;4.696;2023-07-02T06:27:05;18.60;99.90
19870;DHT22;10097;50.862;4.696;2023-07-02T06:29:30;18.50;99.90
19870;DHT22;10097;50.862;4.696;2023-07-02T06:31:56;18.60;99.90
19870;DHT22;10097;50.862;4.696;2023-07-02T06:34:22;18.60;99.90
19870;DHT22;10097;50.862;4.696;2023-07-02T06:36:48;18.60;99.90
19870;DHT22;10097;50.862;4.696;2023-07-02T06:39:14;18.70;99.90
19870;DHT22;10097;50.862;4.696;2023-07-02T06:41:39;18.90;99.90
19870;DHT22;10097;50.862;4.696;2023-07-02T06:44:05;19.00;99.90
19870;DHT22;10097;50.862;4.696;2023-07-02T06:46:31;18.90;99.90
19870;DHT22;10097;50.862;4.696;2023-07-02T06:48:57;18.90;99.90
19870;DHT22;10097;50.862;4.696;2023-07-02T06:51:23;18.90;99.90
19870;DHT22;10097;50.862;4.696;2023-07-02T06:53:50;19.00;99.90
19870;DHT22;10097;50.862;4.696;2023-07-02T06:56:21;19.10;99.90
19870;DHT22;10097;50.862;4.696;2023-07-02T06:58:47;19.20;99.90
19870;DHT22;10097;50.862;4.696;2023-07-02T07:01:12;19.60;99.90
19870;DHT22;10097;50.862;4.696;2023-07-02T07:03:38;19.50;99.90
19870;DHT22;10097;50.862;4.696;2023-07-02T07:06:04;19.80;99.90
19870;DHT22;10097;50.862;4.696;2023-07-02T07:08:29;19.80;99.90
19870;DHT22;10097;50.862;4.696;2023-07-02T07:10:55;19.60;99.90
19870;DHT22;10097;50.862;4.696;2023-07-02T07:13:21;19.70;99.90
19870;DHT22;10097;50.862;4.696;2023-07-02T07:15:47;19.90;99.90
19870;DHT22;10097;50.862;4.696;2023-07-02T07:18:12;19.90;99.90
19870;DHT22;10097;50.862;4.696;2023-07-02T07:20:39;19.90;99.90
19870;DHT22;10097;50.862;4.696;2023-07-02T07:23:06;20.00;99.90
19870;DHT22;10097;50.862;4.696;2023-07-02T07:25:32;20.00;99.90
19870;DHT22;10097;50.862;4.696;2023-07-02T07:28:00;20.00;99.90
19870;DHT22;10097;50.862;4.696;2023-07-02T07:30:31;20.00;99.90
19870;DHT22;10097;50.862;4.696;2023-07-02T07:33:02;20.00;99.90
19870;DHT22;10097;50.862;4.696;2023-07-02T07:35:28;19.80;99.90
19870;DHT22;10097;50.862;4.696;2023-07-02T07:37:53;19.80;99.90
19870;DHT22;10097;50.862;4.696;2023-07-02T07:40:19;19.70;99.90
19870;DHT22;10097;50.862;4.696;2023-07-02T07:42:45;19.80;99.90
19870;DHT22;10097;50.862;4.696;2023-07-02T07:45:11;20.00;99.90
19870;DHT22;10097;50.862;4.696;2023-07-02T07:47:37;20.00;99.90
19870;DHT22;10097;50.862;4.696;2023-07-02T07:50:03;20.00;99.90
19870;DHT22;10097;50.862;4.696;2023-07-02T07:52:36;20.20;99.90
19870;DHT22;10097;50.862;4.696;2023-07-02T07:55:01;20.50;99.90
19870;DHT22;10097;50.862;4.696;2023-07-02T07:57:27;20.70;99.90
19870;DHT22;10097;50.862;4.696;2023-07-02T07:59:53;20.80;99.90
19870;DHT22;10097;50.862;4.696;2023-07-02T08:02:21;21.10;99.90
19870;DHT22;10097;50.862;4.696;2023-07-02T08:04:48;21.30;99.90
19870;DHT22;10097;50.862;4.696;2023-07-02T08:07:14;21.40;99.90
19870;DHT22;10097;50.862;4.696;2023-07-02T08:09:40;21.40;99.90
19870;DHT22;10097;50.862;4.696;2023-07-02T08:12:06;21.40;99.90
19870;DHT22;10097;50.862;4.696;2023-07-02T08:14:31;21.20;99.90
19870;DHT22;10097;50.862;4.696;2023-07-02T08:16:57;21.00;99.90
19870;DHT22;10097;50.862;4.696;2023-07-02T08:19:22;20.90;99.90
19870;DHT22;10097;50.862;4.696;2023-07-02T08:21:48;21.20;99.90
19870;DHT22;10097;50.862;4.696;2023-07-02T08:24:14;21.30;99.90
19870;DHT22;10097;50.862;4.696;2023-07-02T08:26:40;21.50;99.90
19870;DHT22;10097;50.862;4.696;2023-07-02T08:29:05;21.80;99.90
19870;DHT22;10097;50.862;4.696;2023-07-02T08:31:32;22.10;99.90
19870;DHT22;10097;50.862;4.696;2023-07-02T08:33:58;22.20;99.90
19870;DHT22;10097;50.862;4.696;2023-07-02T08:36:23;22.10;99.90
19870;DHT22;10097;50.862;4.696;2023-07-02T08:38:49;22.30;99.90
19870;DHT22;10097;50.862;4.696;2023-07-02T08:41:15;22.60;99.90
19870;DHT22;10097;50.862;4.696;2023-07-02T08:43:41;22.80;99.90
19870;DHT22;10097;50.862;4.696;2023-07-02T08:46:07;22.70;99.90
19870;DHT22;10097;50.862;4.696;2023-07-02T08:48:34;22.70;99.90
19870;DHT22;10097;50.862;4.696;2023-07-02T08:51:00;22.80;99.90
19870;DHT22;10097;50.862;4.696;2023-07-02T08:53:25;23.00;99.90
19870;DHT22;10097;50.862;4.696;2023-07-02T08:55:55;23.20;99.90
19870;DHT22;10097;50.862;4.696;2023-07-02T08:58:22;23.40;99.90
19870;DHT22;10097;50.862;4.696;2023-07-02T09:01:07;23.50;99.90
19870;DHT22;10097;50.862;4.696;2023-07-02T09:03:33;23.20;99.90
19870;DHT22;10097;50.862;4.696;2023-07-02T09:05:58;23.20;99.90
19870;DHT22;10097;50.862;4.696;2023-07-02T09:08:28;23.10;99.90
19870;DHT22;10097;50.862;4.696;2023-07-02T09:11:04;22.60;99.90
19870;DHT22;10097;50.862;4.696;2023-07-02T09:13:30;22.70;99.90
19870;DHT22;10097;50.862;4.696;2023-07-02T09:15:56;22.80;99.90
19870;DHT22;10097;50.862;4.696;2023-07-02T09:18:22;22.60;99.90
19870;DHT22;10097;50.862;4.696;2023-07-02T09:20:52;22.20;99.90
19870;DHT22;10097;50.862;4.696;2023-07-02T09:23:19;22.30;99.90
19870;DHT22;10097;50.862;4.696;2023-07-02T09:25:45;22.10;99.90
19870;DHT22;10097;50.862;4.696;2023-07-02T09:28:19;22.00;99.90
19870;DHT22;10097;50.862;4.696;2023-07-02T09:30:55;22.30;99.90
19870;DHT22;10097;50.862;4.696;2023-07-02T09:33:25;22.20;99.90
19870;DHT22;10097;50.862;4.696;2023-07-02T09:35:51;22.20;99.90
19870;DHT22;10097;50.862;4.696;2023-07-02T09:38:21;21.90;99.90
19870;DHT22;10097;50.862;4.696;2023-07-02T09:40:49;21.80;99.90
19870;DHT22;10097;50.862;4.696;2023-07-02T09:43:17;21.40;99.90
19870;DHT22;10097;50.862;4.696;2023-07-02T09:45:45;21.70;99.90
19870;DHT22;10097;50.862;4.696;2023-07-02T09:48:24;22.10;99.90
19870;DHT22;10097;50.862;4.696;2023-07-02T09:50:51;22.50;99.90
19870;DHT22;10097;50.862;4.696;2023-07-02T09:53:17;22.70;99.90
19870;DHT22;10097;50.862;4.696;2023-07-02T09:55:43;22.80;99.90
19870;DHT22;10097;50.862;4.696;2023-07-02T09:58:09;22.60;99.90
19870;DHT22;10097;50.862;4.696;2023-07-02T10:00:35;22.70;99.90
19870;DHT22;10097;50.862;4.696;2023-07-02T10:03:01;22.50;99.90
19870;DHT22;10097;50.862;4.696;2023-07-02T10:05:30;22.10;99.90
19870;DHT22;10097;50.862;4.696;2023-07-02T10:07:57;22.00;99.90
19870;DHT22;10097;50.862;4.696;2023-07-02T10:12:53;22.00;99.90
19870;DHT22;10097;50.862;4.696;2023-07-02T10:15:29;22.40;99.90
19870;DHT22;10097;50.862;4.696;2023-07-02T10:17:59;22.50;99.90
19870;DHT22;10097;50.862;4.696;2023-07-02T10:23:01;22.30;99.90
19870;DHT22;10097;50.862;4.696;2023-07-02T10:25:29;22.10;99.90
19870;DHT22;10097;50.862;4.696;2023-07-02T10:27:55;22.00;99.90
19870;DHT22;10097;50.862;4.696;2023-07-02T10:30:34;21.90;99.90
19870;DHT22;10097;50.862;4.696;2023-07-02T10:33:13;21.90;99.90
19870;DHT22;10097;50.862;4.696;2023-07-02T10:35:44;21.70;99.90
19870;DHT22;10097;50.862;4.696;2023-07-02T10:38:20;21.60;99.90
19870;DHT22;10097;50.862;4.696;2023-07-02T10:40:46;21.70;99.90
19870;DHT22;10097;50.862;4.696;2023-07-02T10:43:12;21.90;99.90
19870;DHT22;10097;50.862;4.696;2023-07-02T10:45:38;22.10;99.90
19870;DHT22;10097;50.862;4.696;2023-07-02T10:48:08;22.20;99.90
19870;DHT22;10097;50.862;4.696;2023-07-02T10:50:35;22.60;99.90
19870;DHT22;10097;50.862;4.696;2023-07-02T10:53:00;22.90;99.90
19870;DHT22;10097;50.862;4.696;2023-07-02T10:55:27;23.20;99.90
19870;DHT22;10097;50.862;4.696;2023-07-02T10:58:04;23.40;99.90
19870;DHT22;10097;50.862;4.696;2023-07-02T11:00:30;23.30;99.90
19870;DHT22;10097;50.862;4.696;2023-07-02T11:02:57;23.10;99.90
19870;DHT22;10097;50.862;4.696;2023-07-02T11:05:22;22.60;99.90
19870;DHT22;10097;50.862;4.696;2023-07-02T11:07:48;22.50;99.90
19870;DHT22;10097;50.862;4.696;2023-07-02T11:10:20;22.30;99.90
19870;DHT22;10097;50.862;4.696;2023-07-02T11:12:46;22.10;99.90
19870;DHT22;10097;50.862;4.696;2023-07-02T11:15:13;22.00;99.90
19870;DHT22;10097;50.862;4.696;2023-07-02T11:17:39;22.30;99.90
19870;DHT22;10097;50.862;4.696;2023-07-02T11:20:09;22.60;99.90
19870;DHT22;10097;50.862;4.696;2023-07-02T11:22:36;22.90;99.90
19870;DHT22;10097;50.862;4.696;2023-07-02T11:25:16;23.20;99.90
19870;DHT22;10097;50.862;4.696;2023-07-02T11:27:43;24.10;99.90
19870;DHT22;10097;50.862;4.696;2023-07-02T11:30:09;24.50;99.90
19870;DHT22;10097;50.862;4.696;2023-07-02T11:32:47;24.60;99.90
19870;DHT22;10097;50.862;4.696;2023-07-02T11:35:14;24.10;99.90
19870;DHT22;10097;50.862;4.696;2023-07-02T11:37:39;23.50;99.90
19870;DHT22;10097;50.862;4.696;2023-07-02T11:40:05;23.70;99.90
19870;DHT22;10097;50.862;4.696;2023-07-02T11:42:31;24.10;99.90
19870;DHT22;10097;50.862;4.696;2023-07-02T11:44:57;25.10;99.90
19870;DHT22;10097;50.862;4.696;2023-07-02T11:47:22;25.30;99.90
19870;DHT22;10097;50.862;4.696;2023-07-02T11:49:48;25.20;99.90
19870;DHT22;10097;50.862;4.696;2023-07-02T11:52:14;25.30;99.90
19870;DHT22;10097;50.862;4.696;2023-07-02T11:54:40;26.50;99.90
19870;DHT22;10097;50.862;4.696;2023-07-02T11:57:06;26.30;99.90
19870;DHT22;10097;50.862;4.696;2023-07-02T11:59:32;25.30;99.90
19870;DHT22;10097;50.862;4.696;2023-07-02T12:01:57;24.60;99.90
19870;DHT22;10097;50.862;4.696;2023-07-02T12:04:23;25.00;99.90
19870;DHT22;10097;50.862;4.696;2023-07-02T12:06:49;24.90;99.90
19870;DHT22;10097;50.862;4.696;2023-07-02T12:09:14;25.00;99.90
19870;DHT22;10097;50.862;4.696;2023-07-02T12:11:40;25.20;99.90
19870;DHT22;10097;50.862;4.696;2023-07-02T12:14:06;25.60;99.90
19870;DHT22;10097;50.862;4.696;2023-07-02T12:16:31;25.70;99.90
19870;DHT22;10097;50.862;4.696;2023-07-02T12:18:57;26.10;99.90
19870;DHT22;10097;50.862;4.696;2023-07-02T12:21:22;26.10;99.90
19870;DHT22;10097;50.862;4.696;2023-07-02T12:23:48;26.00;99.90
19870;DHT22;10097;50.862;4.696;2023-07-02T12:26:14;26.00;99.90
19870;DHT22;10097;50.862;4.696;2023-07-02T12:28:39;26.00;99.90
19870;DHT22;10097;50.862;4.696;2023-07-02T12:31:05;25.70;99.90
19870;DHT22;10097;50.862;4.696;2023-07-02T12:33:31;26.40;99.90
19870;DHT22;10097;50.862;4.696;2023-07-02T12:35:56;27.30;99.90
19870;DHT22;10097;50.862;4.696;2023-07-02T12:38:22;27.60;99.90
19870;DHT22;10097;50.862;4.696;2023-07-02T12:40:48;27.90;99.70
19870;DHT22;10097;50.862;4.696;2023-07-02T12:43:14;27.60;99.90
19870;DHT22;10097;50.862;4.696;2023-07-02T12:45:39;27.90;98.70
19870;DHT22;10097;50.862;4.696;2023-07-02T12:48:05;27.10;98.60
19870;DHT22;10097;50.862;4.696;2023-07-02T12:50:31;26.60;99.10
19870;DHT22;10097;50.862;4.696;2023-07-02T12:52:56;25.80;99.90
19870;DHT22;10097;50.862;4.696;2023-07-02T12:55:22;25.30;99.90
19870;DHT22;10097;50.862;4.696;2023-07-02T12:57:48;25.50;99.90
19870;DHT22;10097;50.862;4.696;2023-07-02T13:00:14;26.30;99.90
19870;DHT22;10097;50.862;4.696;2023-07-02T13:02:39;26.20;99.80
19870;DHT22;10097;50.862;4.696;2023-07-02T13:05:05;27.00;99.90
19870;DHT22;10097;50.862;4.696;2023-07-02T13:07:31;27.70;97.40
19870;DHT22;10097;50.862;4.696;2023-07-02T13:09:57;28.20;97.70
19870;DHT22;10097;50.862;4.696;2023-07-02T13:12:22;28.20;96.70
19870;DHT22;10097;50.862;4.696;2023-07-02T13:14:48;28.40;95.80
19870;DHT22;10097;50.862;4.696;2023-07-02T13:17:13;28.40;94.40
19870;DHT22;10097;50.862;4.696;2023-07-02T13:19:39;28.40;93.80
19870;DHT22;10097;50.862;4.696;2023-07-02T13:22:05;27.90;94.50
19870;DHT22;10097;50.862;4.696;2023-07-02T13:24:34;28.20;95.10
19870;DHT22;10097;50.862;4.696;2023-07-02T13:27:05;28.30;94.30
19870;DHT22;10097;50.862;4.696;2023-07-02T13:29:32;27.90;94.80
19870;DHT22;10097;50.862;4.696;2023-07-02T13:31:59;27.90;95.00
19870;DHT22;10097;50.862;4.696;2023-07-02T13:34:24;27.90;95.70
19870;DHT22;10097;50.862;4.696;2023-07-02T13:36:50;27.90;94.60
19870;DHT22;10097;50.862;4.696;2023-07-02T13:39:16;27.80;96.10
19870;DHT22;10097;50.862;4.696;2023-07-02T13:41:41;28.50;95.00
19870;DHT22;10097;50.862;4.696;2023-07-02T13:44:07;29.40;94.60
19870;DHT22;10097;50.862;4.696;2023-07-02T13:46:32;29.50;93.60
19870;DHT22;10097;50.862;4.696;2023-07-02T13:48:58;29.30;92.60
19870;DHT22;10097;50.862;4.696;2023-07-02T13:51:24;29.00;91.50
19870;DHT22;10097;50.862;4.696;2023-07-02T13:53:49;28.80;92.30
19870;DHT22;10097;50.862;4.696;2023-07-02T13:56:15;28.40;91.90
19870;DHT22;10097;50.862;4.696;2023-07-02T13:59:07;28.60;92.40
19870;DHT22;10097;50.862;4.696;2023-07-02T14:01:33;28.90;92.30
19870;DHT22;10097;50.862;4.696;2023-07-02T14:04:00;29.40;91.60
19870;DHT22;10097;50.862;4.696;2023-07-02T14:06:25;29.20;91.50
19870;DHT22;10097;50.862;4.696;2023-07-02T14:08:51;29.50;92.20
19870;DHT22;10097;50.862;4.696;2023-07-02T14:11:17;29.50;91.10
19870;DHT22;10097;50.862;4.696;2023-07-02T14:13:43;29.10;91.00
19870;DHT22;10097;50.862;4.696;2023-07-02T14:16:09;29.30;91.70
19870;DHT22;10097;50.862;4.696;2023-07-02T14:18:35;29.60;91.20
19870;DHT22;10097;50.862;4.696;2023-07-02T14:21:00;29.10;91.40
19870;DHT22;10097;50.862;4.696;2023-07-02T14:23:28;29.00;91.50
19870;DHT22;10097;50.862;4.696;2023-07-02T14:25:53;29.40;91.70
19870;DHT22;10097;50.862;4.696;2023-07-02T14:28:19;30.00;90.50
19870;DHT22;10097;50.862;4.696;2023-07-02T14:30:45;29.60;88.60
19870;DHT22;10097;50.862;4.696;2023-07-02T14:33:11;29.20;90.80
19870;DHT22;10097;50.862;4.696;2023-07-02T14:35:37;29.70;90.80
19870;DHT22;10097;50.862;4.696;2023-07-02T14:38:02;29.80;90.20
19870;DHT22;10097;50.862;4.696;2023-07-02T14:40:28;30.10;89.40
19870;DHT22;10097;50.862;4.696;2023-07-02T14:42:54;30.10;88.40
19870;DHT22;10097;50.862;4.696;2023-07-02T14:45:19;30.00;88.50
19870;DHT22;10097;50.862;4.696;2023-07-02T14:47:45;29.40;89.60
19870;DHT22;10097;50.862;4.696;2023-07-02T14:50:11;29.10;90.70
19870;DHT22;10097;50.862;4.696;2023-07-02T14:52:36;28.80;90.20
19870;DHT22;10097;50.862;4.696;2023-07-02T14:55:02;28.90;90.50
19870;DHT22;10097;50.862;4.696;2023-07-02T14:57:30;28.40;90.70
19870;DHT22;10097;50.862;4.696;2023-07-02T14:59:55;28.80;91.20
19870;DHT22;10097;50.862;4.696;2023-07-02T15:02:21;29.40;91.10
19870;DHT22;10097;50.862;4.696;2023-07-02T15:04:47;29.50;90.70
19870;DHT22;10097;50.862;4.696;2023-07-02T15:07:13;29.40;91.10
19870;DHT22;10097;50.862;4.696;2023-07-02T15:09:39;30.30;90.20
19870;DHT22;10097;50.862;4.696;2023-07-02T15:12:04;29.80;88.40
19870;DHT22;10097;50.862;4.696;2023-07-02T15:14:30;29.10;89.00
19870;DHT22;10097;50.862;4.696;2023-07-02T15:16:56;28.40;90.50
19870;DHT22;10097;50.862;4.696;2023-07-02T15:19:21;28.20;91.20
19870;DHT22;10097;50.862;4.696;2023-07-02T15:21:49;28.60;91.50
19870;DHT22;10097;50.862;4.696;2023-07-02T15:24:15;29.00;90.50
19870;DHT22;10097;50.862;4.696;2023-07-02T15:26:41;28.00;91.10
19870;DHT22;10097;50.862;4.696;2023-07-02T15:29:07;27.60;92.60
19870;DHT22;10097;50.862;4.696;2023-07-02T15:31:33;27.50;93.50